Time;durP1;ratioP1;P1;durP2;ratioP2;P2;SDS_P1;SDS_P2;PMS_P1;PMS_P2;Temp;Humidity;BMP_temperature;BMP_pressure;BME280_temperature;BME280_humidity;BME280_pressure;Samples;Min_cycle;Max_cycle;Signal;HPM_P1;HPM_P2
2022/09/25 00:00:20;;;;;;;;;;;;;;;10.07;100.00;95540.94;1038997;28;19921;-65
2022/09/25 00:00:51;;;;;;;;;;;;;;;10.06;100.00;95542.78;1039434;28;19921;-70
2022/09/25 00:01:22;;;;;;;;;;;;;;;10.08;100.00;95543.28;1034851;28;19914;-66
2022/09/25 00:01:52;;;;;;;;;;;;;;;10.08;100.00;95543.28;1027224;28;19918;-69
2022/09/25 00:02:22;;;;;;;;;;;;;;;10.10;100.00;95538.59;1031071;28;19964;-68
2022/09/25 00:02:54;;;;;;;;;;;;;;;10.08;100.00;95545.91;1027151;28;19919;-69
2022/09/25 00:03:25;;;;;;;;;;;;;;;10.09;100.00;95546.69;1031179;28;19925;-66
2022/09/25 00:03:55;;;;;;;;;;;;;;;10.10;100.00;95541.22;1031198;28;20386;-67
2022/09/25 00:04:25;;;;;;;;;;;;;;;10.12;100.00;95538.31;1027310;28;19922;-66
2022/09/25 00:04:56;;;;;;;;;;;;;;;10.11;100.00;95548.00;1031455;28;19921;-65
2022/09/25 00:05:26;;;;;;;;;;;;;;;10.11;100.00;95540.16;1034224;28;20361;-67
2022/09/25 00:06:00;;;;;;;;;;;;;;;10.14;100.00;95547.50;1035317;28;19968;-69
2022/09/25 00:06:32;;;;;;;;;;;;;;;10.13;100.00;95543.31;1035079;28;19913;-69
2022/09/25 00:07:02;;;;;;;;;;;;;;;10.13;100.00;95539.91;1035791;28;20012;-68
2022/09/25 00:07:32;;;;;;;;;;;;;;;10.13;100.00;95545.94;1040004;28;19917;-70
2022/09/25 00:08:03;;;;;;;;;;;;;;;10.17;100.00;95542.78;1039324;28;19918;-67
2022/09/25 00:08:34;;;;;;;;;;;;;;;10.13;100.00;95540.69;1043284;28;19912;-66
2022/09/25 00:09:04;;;;;;;;;;;;;;;10.13;100.00;95535.44;1035052;28;20386;-65
2022/09/25 00:09:35;;;;;;;;;;;;;;;10.11;100.00;95545.38;1035184;28;19913;-68
2022/09/25 00:10:05;;;;;;;;;;;;;;;10.12;100.00;95543.56;1035233;28;19924;-69
2022/09/25 00:10:54;;;;;;;;;;;;;;;10.11;100.00;95542.00;1030965;28;19917;-65
2022/09/25 00:11:26;;;;;;;;;;;;;;;10.14;100.00;95538.84;1034974;28;19909;-65
2022/09/25 00:11:56;;;;;;;;;;;;;;;10.13;100.00;95538.06;1037931;28;19909;-67
2022/09/25 00:12:27;;;;;;;;;;;;;;;10.11;100.00;95537.53;1041863;28;19920;-66
2022/09/25 00:12:57;;;;;;;;;;;;;;;10.14;100.00;95538.84;1038814;28;19913;-67
2022/09/25 00:13:27;;;;;;;;;;;;;;;10.14;100.00;95539.63;1035232;28;19905;-66
2022/09/25 00:13:58;;;;;;;;;;;;;;;10.13;100.00;95538.06;1039230;28;20329;-66
2022/09/25 00:14:28;;;;;;;;;;;;;;;10.13;100.00;95539.91;1035063;28;19945;-66
2022/09/25 00:14:59;;;;;;;;;;;;;;;10.13;100.00;95534.66;1035085;28;20000;-67
2022/09/25 00:15:29;;;;;;;;;;;;;;;10.11;100.00;95537.53;1035255;28;20008;-66
2022/09/25 00:16:01;;;;;;;;;;;;;;;10.11;100.00;95542.00;1032981;28;20385;-66
2022/09/25 00:16:32;;;;;;;;;;;;;;;10.13;100.00;95545.94;1035748;28;20000;-68
2022/09/25 00:17:02;;;;;;;;;;;;;;;10.14;100.00;95536.22;1039273;28;19917;-67
2022/09/25 00:17:32;;;;;;;;;;;;;;;10.15;100.00;95538.56;1043234;28;20035;-69
2022/09/25 00:18:03;;;;;;;;;;;;;;;10.17;100.00;95537.53;1038856;28;19980;-66
2022/09/25 00:20:11;;;;;;;;;;;;;;;10.20;100.00;95531.75;1043311;28;19983;-67
2022/09/25 00:20:41;;;;;;;;;;;;;;;10.18;100.00;95537.25;1035156;28;19924;-66
2022/09/25 00:21:13;;;;;;;;;;;;;;;10.18;100.00;95528.59;1036618;28;20098;-65
2022/09/25 00:21:43;;;;;;;;;;;;;;;10.15;100.00;95528.06;1039243;28;19940;-65
2022/09/25 00:22:13;;;;;;;;;;;;;;;10.17;100.00;95532.28;1039266;28;19917;-66
2022/09/25 00:22:43;;;;;;;;;;;;;;;10.17;100.00;95542.78;1040676;28;20326;-65
2022/09/25 00:23:14;;;;;;;;;;;;;;;10.18;100.00;95542.50;1034867;28;20434;-65
2022/09/25 00:23:45;;;;;;;;;;;;;;;10.21;100.00;95535.94;1027085;28;19925;-67
2022/09/25 00:24:15;;;;;;;;;;;;;;;10.21;100.00;95530.72;1031077;28;20287;-66
2022/09/25 00:24:46;;;;;;;;;;;;;;;10.19;100.00;95543.28;1035413;28;19977;-68
2022/09/25 00:25:16;;;;;;;;;;;;;;;10.19;100.00;95532.78;1043246;28;19913;-67
2022/09/25 00:25:52;;;;;;;;;;;;;;;10.20;100.00;95539.63;1043477;28;19956;-67
2022/09/25 00:26:22;;;;;;;;;;;;;;;10.21;100.00;95536.72;1047456;28;19920;-67
2022/09/25 00:26:53;;;;;;;;;;;;;;;10.20;100.00;95540.41;1043276;28;20378;-66
2022/09/25 00:27:23;;;;;;;;;;;;;;;10.21;100.00;95535.94;1039152;28;19914;-66
2022/09/25 00:27:53;;;;;;;;;;;;;;;10.20;100.00;95529.94;1041243;28;19920;-68
2022/09/25 00:28:24;;;;;;;;;;;;;;;10.21;100.00;95534.09;1043431;28;19909;-65
2022/09/25 00:28:54;;;;;;;;;;;;;;;10.23;100.00;95539.06;1035089;28;19949;-67
2022/09/25 00:29:24;;;;;;;;;;;;;;;10.22;100.00;95532.25;1038397;28;20315;-66
2022/09/25 00:29:55;;;;;;;;;;;;;;;10.20;100.00;95534.38;1035233;28;19914;-68
2022/09/25 00:30:25;;;;;;;;;;;;;;;10.18;100.00;95539.09;1039264;28;19960;-66
2022/09/25 00:30:55;;;;;;;;;;;;;;;10.18;100.00;95539.09;1038564;28;19963;-66
2022/09/25 00:31:26;;;;;;;;;;;;;;;10.15;100.00;95541.19;1038908;28;20376;-67
2022/09/25 00:31:57;;;;;;;;;;;;;;;10.15;100.00;95537.78;1039295;28;20432;-66
2022/09/25 00:32:27;;;;;;;;;;;;;;;10.13;100.00;95534.66;1035462;28;19918;-67
2022/09/25 00:32:57;;;;;;;;;;;;;;;10.14;100.00;95537.00;1040106;28;19929;-69
2022/09/25 00:33:27;;;;;;;;;;;;;;;10.15;100.00;95541.19;1039241;28;20633;-69
2022/09/25 00:34:01;;;;;;;;;;;;;;;10.15;100.00;95529.91;1043251;28;19912;-66
2022/09/25 00:34:31;;;;;;;;;;;;;;;10.14;100.00;95526.50;1035863;28;19913;-66
2022/09/25 00:35:01;;;;;;;;;;;;;;;10.13;100.00;95532.03;1043403;28;20409;-68
2022/09/25 00:35:32;;;;;;;;;;;;;;;10.14;100.00;95531.75;1043443;28;19913;-65
2022/09/25 00:36:03;;;;;;;;;;;;;;;10.10;100.00;95530.72;1039041;28;19920;-66
2022/09/25 00:36:34;;;;;;;;;;;;;;;10.10;100.00;95532.56;1039082;28;19936;-68
2022/09/25 00:37:04;;;;;;;;;;;;;;;10.09;100.00;95531.78;1031404;28;19945;-66
2022/09/25 00:37:35;;;;;;;;;;;;;;;10.06;100.00;95524.44;1031160;28;19936;-66
2022/09/25 00:38:05;;;;;;;;;;;;;;;10.07;100.00;95528.63;1030867;28;19909;-68
2022/09/25 00:38:36;;;;;;;;;;;;;;;10.08;100.00;95527.56;1035274;28;20407;-67
2022/09/25 00:39:06;;;;;;;;;;;;;;;10.08;100.00;95527.56;1043274;28;19959;-68
2022/09/25 00:39:36;;;;;;;;;;;;;;;10.09;100.00;95528.34;1043351;28;19917;-67
2022/09/25 00:40:07;;;;;;;;;;;;;;;10.09;100.00;95523.09;1039123;28;19932;-67
2022/09/25 00:40:37;;;;;;;;;;;;;;;10.10;100.00;95522.06;1031141;28;19913;-68
2022/09/25 00:41:07;;;;;;;;;;;;;;;10.09;100.00;95525.72;1030584;28;20054;-67
2022/09/25 00:41:38;;;;;;;;;;;;;;;10.07;100.00;95526.00;1035039;28;20389;-69
2022/09/25 00:42:10;;;;;;;;;;;;;;;10.07;100.00;95526.00;1035107;28;20398;-69
2022/09/25 00:42:40;;;;;;;;;;;;;;;10.07;100.00;95525.22;1035205;28;19905;-68
2022/09/25 00:43:14;;;;;;;;;;;;;;;10.07;100.00;95527.84;1034957;28;19918;-67
2022/09/25 00:43:45;;;;;;;;;;;;;;;10.06;100.00;95524.44;1035148;28;19921;-68
2022/09/25 00:44:34;;;;;;;;;;;;;;;10.06;100.00;95524.44;1035527;28;20459;-65
2022/09/25 00:45:13;;;;;;;;;;;;;;;10.08;100.00;95524.16;1039080;28;19924;-68
2022/09/25 00:45:44;;;;;;;;;;;;;;;10.08;100.00;95526.78;1039128;28;19915;-69
2022/09/25 00:46:17;;;;;;;;;;;;;;;10.07;100.00;95520.75;1042855;28;20308;-70
2022/09/25 00:46:47;;;;;;;;;;;;;;;10.02;100.00;95528.63;1037572;28;19980;-68
2022/09/25 00:47:22;;;;;;;;;;;;;;;10.02;100.00;95518.13;1039183;28;19968;-66
2022/09/25 00:48:02;;;;;;;;;;;;;;;10.01;100.00;95521.81;1039184;28;19921;-67
2022/09/25 00:48:32;;;;;;;;;;;;;;;10.02;100.00;95525.22;1039104;28;20344;-69
2022/09/25 00:49:04;;;;;;;;;;;;;;;10.04;100.00;95523.91;1039256;28;19909;-66
2022/09/25 00:49:34;;;;;;;;;;;;;;;10.02;100.00;95528.63;1035188;28;19957;-66
2022/09/25 00:50:10;;;;;;;;;;;;;;;10.00;100.00;95522.88;1041877;28;20486;-65
2022/09/25 00:50:44;;;;;;;;;;;;;;;9.99;100.00;95518.66;1039072;28;19921;-67
2022/09/25 00:51:15;;;;;;;;;;;;;;;9.98;100.00;95517.09;1039812;28;19917;-72
2022/09/25 00:51:45;;;;;;;;;;;;;;;9.99;100.00;95518.66;1037799;28;19913;-65
2022/09/25 00:52:15;;;;;;;;;;;;;;;9.97;100.00;95522.59;1035559;28;20029;-67
2022/09/25 00:52:45;;;;;;;;;;;;;;;9.99;100.00;95521.28;1035070;28;19957;-67
2022/09/25 00:53:18;;;;;;;;;;;;;;;9.98;100.00;95516.31;1035023;28;19924;-66
2022/09/25 00:53:48;;;;;;;;;;;;;;;9.98;100.00;95517.09;1039218;28;20004;-67
2022/09/25 00:54:20;;;;;;;;;;;;;;;9.95;100.00;95517.63;1039191;28;19919;-67
2022/09/25 00:54:52;;;;;;;;;;;;;;;9.95;100.00;95515.00;1039601;28;19917;-71
2022/09/25 00:55:22;;;;;;;;;;;;;;;9.95;100.00;95512.38;1039249;28;19917;-69
2022/09/25 00:55:53;;;;;;;;;;;;;;;9.93;100.00;95511.88;1039688;28;19917;-65
2022/09/25 00:56:23;;;;;;;;;;;;;;;9.96;100.00;95516.59;1039053;28;19920;-66
2022/09/25 00:56:54;;;;;;;;;;;;;;;9.95;100.00;95514.22;1039018;28;19917;-66
2022/09/25 00:57:25;;;;;;;;;;;;;;;9.93;100.00;95508.47;1043212;28;19959;-65
2022/09/25 00:57:56;;;;;;;;;;;;;;;9.94;100.00;95510.81;1043591;28;19912;-65
2022/09/25 00:58:26;;;;;;;;;;;;;;;9.95;100.00;95511.59;1043162;28;20004;-69
2022/09/25 00:58:56;;;;;;;;;;;;;;;9.93;100.00;95509.25;1038830;28;19921;-67
2022/09/25 00:59:28;;;;;;;;;;;;;;;9.94;100.00;95507.41;1035106;28;19917;-65
2022/09/25 01:00:00;;;;;;;;;;;;;;;9.93;100.00;95506.63;1035184;28;19917;-68
2022/09/25 01:00:30;;;;;;;;;;;;;;;9.94;100.00;95510.03;1035678;28;19921;-69
2022/09/25 01:01:01;;;;;;;;;;;;;;;9.92;100.00;95507.66;1034347;28;20115;-65
2022/09/25 01:01:31;;;;;;;;;;;;;;;9.94;100.00;95510.81;1039143;28;19927;-65
2022/09/25 01:02:01;;;;;;;;;;;;;;;9.93;100.00;95508.47;1034864;28;20397;-67
2022/09/25 01:02:32;;;;;;;;;;;;;;;9.93;100.00;95506.63;1035200;28;19921;-64
2022/09/25 01:03:03;;;;;;;;;;;;;;;9.93;100.00;95498.75;1039015;28;20020;-67
2022/09/25 01:03:34;;;;;;;;;;;;;;;9.94;100.00;95505.56;1039267;28;20374;-65
2022/09/25 01:04:04;;;;;;;;;;;;;;;9.94;100.00;95500.31;1043319;28;19998;-65
2022/09/25 01:04:36;;;;;;;;;;;;;;;9.95;100.00;95509.75;1039521;28;20010;-67
2022/09/25 01:05:10;;;;;;;;;;;;;;;9.95;100.00;95501.88;1038865;28;19913;-67
2022/09/25 01:05:41;;;;;;;;;;;;;;;9.95;100.00;95507.13;1039187;28;20002;-66
2022/09/25 01:06:11;;;;;;;;;;;;;;;9.95;100.00;95495.88;1039220;28;20370;-66
2022/09/25 01:06:42;;;;;;;;;;;;;;;9.96;100.00;95494.81;1035048;28;19924;-65
2022/09/25 01:07:13;;;;;;;;;;;;;;;9.95;100.00;95496.66;1038476;28;19957;-67
2022/09/25 01:07:44;;;;;;;;;;;;;;;9.97;100.00;95502.41;1031278;28;19918;-66
2022/09/25 01:08:16;;;;;;;;;;;;;;;9.98;100.00;95497.97;1032411;28;20354;-67
2022/09/25 01:08:46;;;;;;;;;;;;;;;9.97;100.00;95494.56;1037247;28;19913;-66
2022/09/25 01:09:16;;;;;;;;;;;;;;;9.96;100.00;95490.38;1036073;28;19917;-66
2022/09/25 01:09:46;;;;;;;;;;;;;;;9.96;100.00;95498.25;1036035;28;19917;-68
2022/09/25 01:10:17;;;;;;;;;;;;;;;9.97;100.00;95494.56;1035762;28;19917;-68
2022/09/25 01:10:48;;;;;;;;;;;;;;;9.97;100.00;95494.56;1039768;28;19924;-65
2022/09/25 01:11:18;;;;;;;;;;;;;;;9.98;100.00;95493.50;1043249;28;19916;-66
2022/09/25 01:11:48;;;;;;;;;;;;;;;9.97;100.00;95494.56;1043940;28;20271;-65
2022/09/25 01:12:19;;;;;;;;;;;;;;;10.00;100.00;95488.78;1044053;28;19916;-67
2022/09/25 01:12:49;;;;;;;;;;;;;;;9.99;100.00;95489.03;1043975;28;20421;-67
2022/09/25 01:13:19;;;;;;;;;;;;;;;9.96;100.00;95493.00;1039593;28;19924;-65
2022/09/25 01:13:51;;;;;;;;;;;;;;;9.81;100.00;95464.19;1038323;28;20142;-68
2022/09/25 01:14:21;;;;;;;;;;;;;;;9.98;100.00;95480.41;1039646;28;20397;-65
2022/09/25 01:14:52;;;;;;;;;;;;;;;9.98;100.00;95488.25;1029789;28;19921;-64
2022/09/25 01:15:23;;;;;;;;;;;;;;;9.97;100.00;95486.69;1027753;28;19918;-66
2022/09/25 01:16:12;;;;;;;;;;;;;;;9.98;100.00;95488.25;1035917;28;20343;-66
2022/09/25 01:16:43;;;;;;;;;;;;;;;9.97;100.00;95486.69;1036585;28;20387;-67
2022/09/25 01:17:15;;;;;;;;;;;;;;;9.95;100.00;95482.75;1045449;28;19916;-65
2022/09/25 01:17:49;;;;;;;;;;;;;;;9.95;100.00;95485.38;1039404;28;19954;-65
2022/09/25 01:18:42;;;;;;;;;;;;;;;9.95;100.00;95486.16;1040092;28;19948;-66
2022/09/25 01:19:31;;;;;;;;;;;;;;;9.96;100.00;95487.75;1035943;28;20653;-65
2022/09/25 01:20:07;;;;;;;;;;;;;;;9.96;100.00;95482.50;1043981;28;19963;-67
2022/09/25 01:20:56;;;;;;;;;;;;;;;9.97;100.00;95484.06;1040047;28;19927;-68
2022/09/25 01:21:35;;;;;;;;;;;;;;;9.97;100.00;95483.28;1039704;28;20012;-65
2022/09/25 01:22:18;;;;;;;;;;;;;;;9.98;100.00;95483.03;1039822;28;19983;-66
2022/09/25 01:23:08;;;;;;;;;;;;;;;9.97;100.00;95486.69;1046300;28;19905;-65
2022/09/25 01:23:47;;;;;;;;;;;;;;;9.99;100.00;95481.97;1047894;28;20007;-67
2022/09/25 01:24:26;;;;;;;;;;;;;;;10.00;100.00;95482.78;1047948;28;19924;-67
2022/09/25 01:25:11;;;;;;;;;;;;;;;10.00;100.00;95488.78;1040178;28;19960;-67
2022/09/25 01:25:56;;;;;;;;;;;;;;;10.01;100.00;95485.13;1040037;28;20429;-67
2022/09/25 01:26:35;;;;;;;;;;;;;;;10.03;100.00;95483.03;1043972;28;19912;-66
2022/09/25 01:27:17;;;;;;;;;;;;;;;10.05;100.00;95482.75;1044028;28;19958;-65
2022/09/25 01:28:08;;;;;;;;;;;;;;;10.05;100.00;95493.22;1041103;28;19916;-67
2022/09/25 01:28:57;;;;;;;;;;;;;;;10.05;100.00;95486.16;1041069;28;19924;-65
2022/09/25 01:29:43;;;;;;;;;;;;;;;10.06;100.00;95486.94;1048236;28;19916;-68
2022/09/25 01:30:19;;;;;;;;;;;;;;;10.04;100.00;95489.81;1039278;28;19963;-69
2022/09/25 01:30:50;;;;;;;;;;;;;;;10.04;100.00;95483.81;1035658;28;19921;-64
2022/09/25 01:31:38;;;;;;;;;;;;;;;10.02;100.00;95491.91;1031011;28;19988;-67
2022/09/25 01:32:12;;;;;;;;;;;;;;;10.04;100.00;95483.81;1034887;28;19928;-66
2022/09/25 01:32:43;;;;;;;;;;;;;;;10.04;100.00;95483.81;1034387;28;19940;-64
2022/09/25 01:33:14;;;;;;;;;;;;;;;10.04;100.00;95484.59;1042741;28;20007;-65
2022/09/25 01:33:48;;;;;;;;;;;;;;;10.02;100.00;95481.44;1039832;28;19987;-66
2022/09/25 01:34:21;;;;;;;;;;;;;;;10.02;100.00;95486.69;1040634;28;20445;-66
2022/09/25 01:35:00;;;;;;;;;;;;;;;10.02;100.00;95481.44;1042786;28;19905;-65
2022/09/25 01:35:38;;;;;;;;;;;;;;;10.05;100.00;95482.75;1041805;28;19914;-66
2022/09/25 01:36:28;;;;;;;;;;;;;;;10.02;100.00;95480.66;1043743;28;19979;-67
2022/09/25 01:37:04;;;;;;;;;;;;;;;10.03;100.00;95482.25;1043627;28;19917;-66
2022/09/25 01:37:39;;;;;;;;;;;;;;;10.01;100.00;95479.88;1039911;28;19917;-65
2022/09/25 01:38:24;;;;;;;;;;;;;;;10.00;100.00;95478.31;1043578;28;19917;-65
2022/09/25 01:38:56;;;;;;;;;;;;;;;10.00;100.00;95488.78;1043891;28;19912;-65
2022/09/25 01:39:28;;;;;;;;;;;;;;;10.00;100.00;95480.16;1043948;28;19916;-66
2022/09/25 01:39:58;;;;;;;;;;;;;;;9.99;100.00;95481.97;1041488;28;19935;-67
2022/09/25 01:40:39;;;;;;;;;;;;;;;9.98;100.00;95483.03;1039748;28;20359;-66
2022/09/25 01:41:11;;;;;;;;;;;;;;;9.97;100.00;95485.91;1039190;28;19909;-68
2022/09/25 01:41:49;;;;;;;;;;;;;;;9.96;100.00;95477.28;1037284;28;19921;-65
2022/09/25 01:42:20;;;;;;;;;;;;;;;9.93;100.00;95483.03;1035738;28;20335;-66
2022/09/25 01:42:52;;;;;;;;;;;;;;;9.89;100.00;95479.34;1031268;28;19956;-66
2022/09/25 01:43:25;;;;;;;;;;;;;;;9.87;100.00;95481.47;1036859;28;19917;-68
2022/09/25 01:44:02;;;;;;;;;;;;;;;9.87;100.00;95482.25;1036461;28;19924;-67
2022/09/25 01:44:36;;;;;;;;;;;;;;;9.84;100.00;95479.38;1032934;28;20407;-67
2022/09/25 01:45:08;;;;;;;;;;;;;;;9.82;100.00;95487.47;1039377;28;20414;-66
2022/09/25 01:45:42;;;;;;;;;;;;;;;9.80;100.00;95486.19;1041538;28;20334;-66
2022/09/25 01:46:17;;;;;;;;;;;;;;;9.78;100.00;95481.19;1042088;28;20012;-68
2022/09/25 01:46:50;;;;;;;;;;;;;;;9.75;100.00;95475.72;1042294;28;20012;-66
2022/09/25 01:47:25;;;;;;;;;;;;;;;9.75;100.00;95480.94;1043880;28;19905;-66
2022/09/25 01:47:56;;;;;;;;;;;;;;;9.74;100.00;95479.38;1039723;28;19964;-67
2022/09/25 01:48:26;;;;;;;;;;;;;;;9.73;100.00;95475.97;1037697;28;19917;-66
2022/09/25 01:48:59;;;;;;;;;;;;;;;9.72;100.00;95477.00;1039553;28;19925;-68
2022/09/25 01:49:31;;;;;;;;;;;;;;;9.70;100.00;95475.72;1039779;28;19991;-68
2022/09/25 01:50:03;;;;;;;;;;;;;;;9.68;100.00;95474.13;1038975;28;19921;-67
2022/09/25 01:50:50;;;;;;;;;;;;;;;9.68;100.00;95478.59;1039682;28;20393;-65
2022/09/25 01:51:25;;;;;;;;;;;;;;;9.68;100.00;95473.34;1039121;28;20430;-68
2022/09/25 01:51:56;;;;;;;;;;;;;;;9.67;100.00;95475.19;1039620;28;19956;-66
2022/09/25 01:52:31;;;;;;;;;;;;;;;9.66;100.00;95473.63;1038893;28;19927;-68
2022/09/25 01:53:03;;;;;;;;;;;;;;;9.65;100.00;95472.03;1043389;28;19917;-67
2022/09/25 01:53:36;;;;;;;;;;;;;;;9.65;100.00;95469.41;1039596;28;19949;-66
2022/09/25 01:54:07;;;;;;;;;;;;;;;9.66;100.00;95463.16;1038477;28;20391;-67
2022/09/25 01:54:39;;;;;;;;;;;;;;;9.66;100.00;95471.00;1035754;28;19917;-66
2022/09/25 01:55:15;;;;;;;;;;;;;;;9.66;100.00;95471.00;1032057;28;19924;-65
2022/09/25 01:55:46;;;;;;;;;;;;;;;9.66;100.00;95471.00;1041078;28;19928;-67
2022/09/25 01:56:37;;;;;;;;;;;;;;;9.66;100.00;95471.00;1039815;28;19925;-66
2022/09/25 01:57:23;;;;;;;;;;;;;;;9.66;100.00;95476.25;1043265;28;19924;-65
2022/09/25 01:58:01;;;;;;;;;;;;;;;9.68;100.00;95468.09;1039843;28;20015;-66
2022/09/25 01:58:39;;;;;;;;;;;;;;;9.67;100.00;95469.94;1042008;28;19913;-66
2022/09/25 01:59:16;;;;;;;;;;;;;;;9.65;100.00;95472.03;1039582;28;19937;-67
2022/09/25 01:59:56;;;;;;;;;;;;;;;9.66;100.00;95468.38;1038752;28;19917;-66
2022/09/25 02:00:27;;;;;;;;;;;;;;;9.65;100.00;95477.28;1030721;28;19914;-64
2022/09/25 02:00:58;;;;;;;;;;;;;;;9.64;100.00;95465.22;1035172;28;19913;-65
2022/09/25 02:01:30;;;;;;;;;;;;;;;9.63;100.00;95474.16;1035384;28;19941;-65
2022/09/25 02:02:00;;;;;;;;;;;;;;;9.62;100.00;95474.41;1032579;28;19921;-67
2022/09/25 02:02:35;;;;;;;;;;;;;;;9.61;100.00;95470.22;1024054;28;20509;-69
2022/09/25 02:03:10;;;;;;;;;;;;;;;9.61;100.00;95473.63;1028793;28;19914;-67
2022/09/25 02:03:42;;;;;;;;;;;;;;;9.60;100.00;95473.88;1038014;28;20016;-67
2022/09/25 02:04:14;;;;;;;;;;;;;;;9.58;100.00;95471.50;1035655;28;19918;-65
2022/09/25 02:05:05;;;;;;;;;;;;;;;9.58;100.00;95474.13;1027774;28;19918;-68
2022/09/25 02:05:38;;;;;;;;;;;;;;;9.58;100.00;95475.97;1027757;28;19918;-67
2022/09/25 02:06:09;;;;;;;;;;;;;;;9.56;100.00;95473.63;1042086;28;19917;-67
2022/09/25 02:06:39;;;;;;;;;;;;;;;9.55;100.00;95473.88;1043111;28;19913;-66
2022/09/25 02:07:10;;;;;;;;;;;;;;;9.54;100.00;95469.69;1043829;28;19916;-66
2022/09/25 02:07:42;;;;;;;;;;;;;;;9.52;100.00;95480.41;1043688;28;19916;-68
2022/09/25 02:08:14;;;;;;;;;;;;;;;9.51;100.00;95476.22;1043530;28;20551;-68
2022/09/25 02:08:46;;;;;;;;;;;;;;;9.50;100.00;95474.66;1043310;28;19913;-69
2022/09/25 02:09:18;;;;;;;;;;;;;;;9.48;100.00;95473.34;1044015;28;20062;-68
2022/09/25 02:09:51;;;;;;;;;;;;;;;9.47;100.00;95475.19;1039094;28;19917;-67
2022/09/25 02:10:24;;;;;;;;;;;;;;;9.45;100.00;95483.28;1039588;28;19923;-67
2022/09/25 02:11:01;;;;;;;;;;;;;;;9.41;100.00;95473.63;1039275;28;19921;-70
2022/09/25 02:11:32;;;;;;;;;;;;;;;9.44;100.00;95480.94;1043572;28;19967;-69
2022/09/25 02:12:06;;;;;;;;;;;;;;;9.45;100.00;95479.91;1039719;28;19924;-67
2022/09/25 02:12:39;;;;;;;;;;;;;;;9.45;100.00;95482.50;1035704;28;20015;-67
2022/09/25 02:13:12;;;;;;;;;;;;;;;9.42;100.00;95485.66;1035657;28;19921;-68
2022/09/25 02:13:44;;;;;;;;;;;;;;;9.42;100.00;95483.03;1036638;28;20763;-68
2022/09/25 02:14:15;;;;;;;;;;;;;;;9.41;100.00;95481.47;1037252;28;19914;-67
2022/09/25 02:15:04;;;;;;;;;;;;;;;9.39;100.00;95486.19;1038978;28;19917;-68
2022/09/25 02:16:04;;;;;;;;;;;;;;;9.36;100.00;95481.47;1028665;28;19949;-67
2022/09/25 02:16:35;;;;;;;;;;;;;;;9.34;100.00;95481.72;1041925;28;19928;-67
2022/09/25 02:17:06;;;;;;;;;;;;;;;9.34;100.00;95476.50;1031498;28;20379;-66
2022/09/25 02:20:41;;;;;;;;;;;;;;;9.36;100.00;95484.09;1043642;28;19917;-69
2022/09/25 02:21:11;;;;;;;;;;;;;;;9.35;100.00;95483.28;1042801;28;19917;-67
2022/09/25 02:21:41;;;;;;;;;;;;;;;9.37;100.00;95485.66;1039375;28;19920;-67
2022/09/25 02:22:14;;;;;;;;;;;;;;;9.37;100.00;95481.19;1034955;28;19917;-66
2022/09/25 02:22:44;;;;;;;;;;;;;;;9.21;100.00;95459.44;1027225;28;19968;-65
2022/09/25 02:23:17;;;;;;;;;;;;;;;9.39;100.00;95483.56;1027544;28;19916;-67
2022/09/25 02:23:50;;;;;;;;;;;;;;;9.39;100.00;95484.38;1032011;28;19960;-65
2022/09/25 02:24:25;;;;;;;;;;;;;;;9.39;100.00;95484.38;1035846;28;19944;-67
2022/09/25 02:25:01;;;;;;;;;;;;;;;9.41;100.00;95491.94;1040977;28;19910;-67
2022/09/25 02:25:36;;;;;;;;;;;;;;;9.41;100.00;95491.94;1043901;28;19908;-68
2022/09/25 02:26:07;;;;;;;;;;;;;;;9.42;100.00;95489.09;1039496;28;19906;-66
2022/09/25 02:26:38;;;;;;;;;;;;;;;9.42;100.00;95493.50;1033124;28;20314;-66
2022/09/25 02:27:08;;;;;;;;;;;;;;;9.41;100.00;95491.94;1031522;28;19910;-67
2022/09/25 02:27:38;;;;;;;;;;;;;;;9.40;100.00;95495.63;1031856;28;20425;-69
2022/09/25 02:28:09;;;;;;;;;;;;;;;9.42;100.00;95493.50;1031497;28;19914;-66
2022/09/25 02:28:39;;;;;;;;;;;;;;;9.43;100.00;95497.72;1039686;28;19913;-66
2022/09/25 02:29:09;;;;;;;;;;;;;;;9.45;100.00;95500.84;1043811;28;20326;-67
2022/09/25 02:29:41;;;;;;;;;;;;;;;9.46;100.00;95497.19;1036286;28;19914;-67
2022/09/25 02:30:11;;;;;;;;;;;;;;;9.49;100.00;95494.06;1033560;28;19905;-67
2022/09/25 02:30:42;;;;;;;;;;;;;;;9.48;100.00;95489.06;1033079;28;19906;-67
2022/09/25 02:31:12;;;;;;;;;;;;;;;9.48;100.00;95489.06;1035402;28;19967;-66
2022/09/25 02:31:53;;;;;;;;;;;;;;;9.44;100.00;95488.81;1038880;28;19924;-66
2022/09/25 02:32:30;;;;;;;;;;;;;;;9.46;100.00;95489.34;1042822;28;20495;-67
2022/09/25 02:33:00;;;;;;;;;;;;;;;9.45;100.00;95493.00;1043809;28;19917;-65
2022/09/25 02:33:30;;;;;;;;;;;;;;;9.45;100.00;95493.78;1043985;28;19921;-66
2022/09/25 02:34:02;;;;;;;;;;;;;;;9.45;100.00;95495.59;1039076;28;19921;-66
2022/09/25 02:34:32;;;;;;;;;;;;;;;9.44;100.00;95488.81;1031679;28;19917;-65
2022/09/25 02:35:03;;;;;;;;;;;;;;;9.45;100.00;95490.38;1031679;28;20367;-65
2022/09/25 02:35:33;;;;;;;;;;;;;;;9.46;100.00;95491.97;1032264;28;19925;-65
2022/09/25 02:36:04;;;;;;;;;;;;;;;9.44;100.00;95489.59;1039941;28;19917;-66
2022/09/25 02:36:34;;;;;;;;;;;;;;;9.46;100.00;95494.59;1043808;28;20349;-65
2022/09/25 02:37:11;;;;;;;;;;;;;;;9.48;100.00;95489.06;1039965;28;19917;-66
2022/09/25 02:37:41;;;;;;;;;;;;;;;9.50;100.00;95489.59;1035865;28;20322;-69
2022/09/25 02:38:11;;;;;;;;;;;;;;;9.50;100.00;95489.59;1035663;28;19918;-66
2022/09/25 02:38:42;;;;;;;;;;;;;;;9.50;100.00;95492.22;1036661;28;19917;-68
2022/09/25 02:39:13;;;;;;;;;;;;;;;9.49;100.00;95491.44;1035789;28;19917;-66
2022/09/25 02:39:44;;;;;;;;;;;;;;;9.50;100.00;95489.59;1035696;28;19918;-66
2022/09/25 02:40:15;;;;;;;;;;;;;;;9.49;100.00;95483.59;1032019;28;20330;-66
2022/09/25 02:40:51;;;;;;;;;;;;;;;9.51;100.00;95485.94;1031929;28;19918;-66
2022/09/25 02:41:34;;;;;;;;;;;;;;;9.34;100.00;95460.00;1035994;28;19917;-66
2022/09/25 02:42:08;;;;;;;;;;;;;;;9.51;100.00;95488.56;1038357;28;19925;-66
2022/09/25 02:42:41;;;;;;;;;;;;;;;9.50;100.00;95490.38;1042815;28;20350;-66
2022/09/25 02:43:32;;;;;;;;;;;;;;;9.50;100.00;95490.38;1039238;28;19955;-65
2022/09/25 02:44:03;;;;;;;;;;;;;;;9.51;100.00;95486.72;1039792;28;19913;-66
2022/09/25 02:44:45;;;;;;;;;;;;;;;9.53;100.00;95495.09;1043036;28;20398;-65
2022/09/25 02:45:15;;;;;;;;;;;;;;;9.50;100.00;95482.53;1048014;28;19916;-66
2022/09/25 02:45:56;;;;;;;;;;;;;;;9.33;100.00;95458.44;1048203;28;20365;-66
2022/09/25 02:46:29;;;;;;;;;;;;;;;9.48;100.00;95487.22;1039764;28;19913;-66
2022/09/25 02:47:19;;;;;;;;;;;;;;;9.49;100.00;95486.19;1039755;28;19913;-65
2022/09/25 02:47:58;;;;;;;;;;;;;;;9.47;100.00;95485.66;1039827;28;19917;-65
2022/09/25 02:48:55;;;;;;;;;;;;;;;9.46;100.00;95481.50;1043937;28;19923;-68
2022/09/25 02:49:33;;;;;;;;;;;;;;;9.43;100.00;95479.38;1034746;28;20004;-67
2022/09/25 02:50:04;;;;;;;;;;;;;;;9.44;100.00;95480.94;1039239;28;19914;-66
2022/09/25 02:50:36;;;;;;;;;;;;;;;9.45;100.00;95477.28;1039714;28;19917;-67
2022/09/25 02:51:11;;;;;;;;;;;;;;;9.43;100.00;95482.78;1035160;28;19920;-66
2022/09/25 02:51:46;;;;;;;;;;;;;;;9.43;100.00;95477.53;1029523;28;19918;-67
2022/09/25 02:52:45;;;;;;;;;;;;;;;9.44;100.00;95478.34;1035778;28;19932;-65
2022/09/25 02:53:26;;;;;;;;;;;;;;;9.45;100.00;95477.28;1043995;28;19916;-65
2022/09/25 02:54:04;;;;;;;;;;;;;;;9.43;100.00;95482.00;1042537;28;20461;-66
2022/09/25 02:54:38;;;;;;;;;;;;;;;9.42;100.00;95483.03;1035508;28;19975;-65
2022/09/25 02:55:11;;;;;;;;;;;;;;;9.45;100.00;95478.06;1039518;28;19952;-68
2022/09/25 02:55:45;;;;;;;;;;;;;;;9.46;100.00;95481.50;1037592;28;19910;-65
2022/09/25 02:56:27;;;;;;;;;;;;;;;9.45;100.00;95478.06;1037138;28;19992;-66
2022/09/25 02:57:02;;;;;;;;;;;;;;;9.45;100.00;95480.69;1035656;28;19983;-66
2022/09/25 02:57:47;;;;;;;;;;;;;;;9.46;100.00;95476.25;1036598;28;19920;-67
2022/09/25 02:58:20;;;;;;;;;;;;;;;9.44;100.00;95479.13;1036052;28;19953;-65
2022/09/25 02:58:51;;;;;;;;;;;;;;;9.45;100.00;95482.50;1045735;28;19928;-68
2022/09/25 02:59:23;;;;;;;;;;;;;;;9.44;100.00;95480.94;1039891;28;19913;-65